Time;durP1;ratioP1;P1;durP2;ratioP2;P2;SDS_P1;SDS_P2;PMS_P1;PMS_P2;Temp;Humidity;BMP_temperature;BMP_pressure;BME280_temperature;BME280_humidity;BME280_pressure;Samples;Min_cycle;Max_cycle;Signal;HPM_P1;HPM_P2
2023/12/24 00:00:56;;;;;;;3.53;3.20;;;;;;;;;;4993443;28;20190;-48
2023/12/24 00:03:22;;;;;;;3.73;3.07;;;;;;;;;;4992784;28;20878;-49
2023/12/24 00:05:48;;;;;;;3.43;3.13;;;;;;;;;;4993154;28;20209;-48
2023/12/24 00:08:15;;;;;;;3.30;3.00;;;;;;;;;;4993299;28;20281;-49
2023/12/24 00:10:41;;;;;;;3.93;3.20;;;;;;;;;;4993142;28;20210;-49
2023/12/24 00:13:07;;;;;;;4.77;3.63;;;;;;;;;;4993267;28;20194;-49
2023/12/24 00:15:33;;;;;;;4.40;3.50;;;;;;;;;;4992586;28;20212;-49
2023/12/24 00:18:00;;;;;;;4.57;3.23;;;;;;;;;;4992575;28;20233;-48
2023/12/24 00:20:26;;;;;;;5.10;3.63;;;;;;;;;;4992739;28;20210;-49
2023/12/24 00:23:04;;;;;;;3.73;3.23;;;;;;;;;;4992996;28;20217;-49
2023/12/24 00:25:31;;;;;;;5.33;3.50;;;;;;;;;;4992906;28;20208;-50
2023/12/24 00:28:00;;;;;;;3.53;3.23;;;;;;;;;;4992699;28;20305;-49
2023/12/24 00:30:26;;;;;;;4.97;3.07;;;;;;;;;;4991675;28;20209;-49
2023/12/24 00:32:53;;;;;;;4.03;3.20;;;;;;;;;;4992777;28;20268;-49
2023/12/24 00:35:19;;;;;;;5.03;3.50;;;;;;;;;;4992608;28;20285;-50
2023/12/24 00:37:45;;;;;;;3.50;3.20;;;;;;;;;;4992354;28;20210;-49
2023/12/24 00:40:11;;;;;;;3.57;2.90;;;;;;;;;;4992391;28;20277;-49
2023/12/24 00:42:39;;;;;;;3.03;2.73;;;;;;;;;;4988075;28;20260;-50
2023/12/24 00:45:05;;;;;;;3.60;3.10;;;;;;;;;;4992356;28;20661;-50
2023/12/24 00:47:31;;;;;;;3.93;3.23;;;;;;;;;;4992207;28;20208;-50
2023/12/24 00:49:57;;;;;;;5.33;3.10;;;;;;;;;;4992538;28;20198;-50
2023/12/24 00:52:23;;;;;;;3.43;2.80;;;;;;;;;;4992321;28;20202;-50
2023/12/24 00:54:49;;;;;;;3.93;2.50;;;;;;;;;;4992071;28;20561;-49
2023/12/24 00:57:15;;;;;;;3.30;3.00;;;;;;;;;;4992245;28;20257;-50
2023/12/24 00:59:43;;;;;;;2.93;2.73;;;;;;;;;;4992081;28;20202;-49
2023/12/24 01:02:09;;;;;;;5.67;3.00;;;;;;;;;;4992132;28;20213;-49
2023/12/24 01:04:35;;;;;;;2.67;2.40;;;;;;;;;;4991799;28;20708;-49
2023/12/24 01:07:01;;;;;;;2.60;2.40;;;;;;;;;;4992216;28;20198;-49
2023/12/24 01:09:27;;;;;;;2.47;2.20;;;;;;;;;;4991801;28;20245;-49
2023/12/24 01:11:53;;;;;;;3.20;2.30;;;;;;;;;;4991890;28;20743;-49
2023/12/24 01:14:19;;;;;;;2.70;2.10;;;;;;;;;;4991841;28;20683;-48
2023/12/24 01:16:46;;;;;;;2.20;1.93;;;;;;;;;;4991818;28;20218;-49
2023/12/24 01:19:13;;;;;;;2.13;1.93;;;;;;;;;;4992062;28;20202;-48
2023/12/24 01:21:39;;;;;;;3.10;2.20;;;;;;;;;;4991713;28;20252;-49
2023/12/24 01:24:05;;;;;;;2.60;2.40;;;;;;;;;;4991810;28;20225;-48
2023/12/24 01:26:32;;;;;;;3.57;2.47;;;;;;;;;;4991814;28;20270;-50
2023/12/24 01:28:58;;;;;;;2.53;2.00;;;;;;;;;;4988272;28;20203;-51
2023/12/24 01:31:25;;;;;;;2.27;1.93;;;;;;;;;;4973858;28;20273;-52
2023/12/24 01:33:52;;;;;;;2.17;1.80;;;;;;;;;;4982032;28;20859;-52
2023/12/24 01:36:18;;;;;;;2.37;2.17;;;;;;;;;;4991724;28;20210;-52
2023/12/24 01:38:44;;;;;;;2.00;1.90;;;;;;;;;;4991021;28;20209;-51
2023/12/24 01:41:10;;;;;;;3.07;2.17;;;;;;;;;;4991570;28;20201;-50
2023/12/24 01:43:36;;;;;;;2.10;1.90;;;;;;;;;;4990830;28;20238;-50
2023/12/24 01:46:02;;;;;;;2.57;2.00;;;;;;;;;;4991590;28;20564;-52
2023/12/24 01:48:28;;;;;;;2.30;2.10;;;;;;;;;;4991557;28;20727;-51
2023/12/24 01:50:57;;;;;;;1.97;1.87;;;;;;;;;;4991473;28;20221;-52
2023/12/24 01:53:23;;;;;;;2.40;2.20;;;;;;;;;;4991417;28;20632;-51
2023/12/24 01:55:49;;;;;;;3.17;2.20;;;;;;;;;;4991285;28;20281;-52
2023/12/24 01:58:16;;;;;;;3.10;2.30;;;;;;;;;;4991598;28;20293;-51
2023/12/24 02:00:42;;;;;;;2.33;1.90;;;;;;;;;;4991307;28;20214;-52
2023/12/24 02:03:08;;;;;;;2.00;1.90;;;;;;;;;;4991426;28;20202;-50
2023/12/24 02:05:35;;;;;;;2.30;2.10;;;;;;;;;;4991611;28;20213;-50
2023/12/24 02:08:03;;;;;;;2.43;2.20;;;;;;;;;;4991866;28;20206;-50
2023/12/24 02:10:29;;;;;;;3.73;2.50;;;;;;;;;;4991832;28;20198;-51
2023/12/24 02:12:55;;;;;;;3.33;2.30;;;;;;;;;;4980847;28;20641;-51
2023/12/24 02:18:36;;;;;;;3.00;2.60;;;;;;;;;;4959930;28;20435;-50
2023/12/24 02:24:45;;;;;;;3.73;2.63;;;;;;;;;;4913740;29;20232;-48
2023/12/24 02:27:45;;;;;;;3.50;2.80;;;;;;;;;;4929931;29;20240;-48
2023/12/24 02:30:26;;;;;;;2.90;2.70;;;;;;;;;;4927044;29;20340;-48
2023/12/24 02:36:45;;;;;;;3.20;2.90;;;;;;;;;;4906528;29;20337;-50
2023/12/24 03:26:31;;;;;;;5.73;4.60;;;;;;;;;;4807679;29;20199;-48
2023/12/24 03:28:57;;;;;;;5.07;4.57;;;;;;;;;;4865940;29;20213;-48
2023/12/24 03:31:34;;;;;;;5.90;4.67;;;;;;;;;;4956886;28;20251;-50
2023/12/24 03:34:00;;;;;;;7.73;6.93;;;;;;;;;;4974243;28;20206;-48
2023/12/24 03:36:29;;;;;;;5.53;4.90;;;;;;;;;;4974506;28;20257;-50
2023/12/24 03:38:56;;;;;;;6.70;5.07;;;;;;;;;;4974065;28;20209;-48
2023/12/24 03:41:22;;;;;;;6.40;5.10;;;;;;;;;;4974180;28;20195;-48
2023/12/24 03:43:49;;;;;;;8.43;5.90;;;;;;;;;;4973960;28;20338;-48
2023/12/24 03:46:17;;;;;;;8.00;5.13;;;;;;;;;;4985770;28;20288;-50
2023/12/24 03:48:47;;;;;;;5.83;5.10;;;;;;;;;;4993796;28;20209;-48
2023/12/24 03:51:14;;;;;;;6.40;5.43;;;;;;;;;;4993776;28;20202;-48
2023/12/24 04:06:01;;;;;;;10.73;6.50;;;;;;;;;;4932021;29;20255;-49
2023/12/24 04:09:30;;;;;;;7.50;6.50;;;;;;;;;;4933203;29;20259;-49
2023/12/24 04:18:37;;;;;;;7.77;5.87;;;;;;;;;;4749169;30;20240;-48
2023/12/24 04:21:05;;;;;;;7.47;6.30;;;;;;;;;;4873112;29;20786;-49
2023/12/24 04:23:31;;;;;;;9.87;6.53;;;;;;;;;;4913734;29;20237;-49
2023/12/24 04:29:49;;;;;;;7.43;5.60;;;;;;;;;;4873848;29;20305;-47
2023/12/24 04:45:32;;;;;;;7.63;6.10;;;;;;;;;;4802154;29;20236;-48
2023/12/24 04:51:00;;;;;;;7.90;5.60;;;;;;;;;;4727664;30;20285;-49
2023/12/24 04:54:06;;;;;;;5.80;4.90;;;;;;;;;;4768063;30;20308;-47
2023/12/24 05:00:14;;;;;;;4.87;4.47;;;;;;;;;;4713397;30;20200;-49
2023/12/24 05:05:51;;;;;;;5.67;5.07;;;;;;;;;;4693720;30;20368;-47
2023/12/24 05:18:07;;;;;;;5.00;4.60;;;;;;;;;;4783340;29;20210;-48
2023/12/24 05:24:09;;;;;;;5.23;4.73;;;;;;;;;;4757999;30;20267;-48
2023/12/24 05:26:46;;;;;;;5.37;4.87;;;;;;;;;;4749598;30;20199;-47
2023/12/24 05:29:37;;;;;;;5.83;4.93;;;;;;;;;;4836015;29;20211;-49
2023/12/24 05:42:02;;;;;;;4.70;4.30;;;;;;;;;;4781100;29;20279;-48
2023/12/24 05:44:58;;;;;;;4.80;4.40;;;;;;;;;;4860559;29;20237;-48
2023/12/24 05:47:35;;;;;;;5.53;5.03;;;;;;;;;;4953687;28;20226;-48
2023/12/24 05:50:14;;;;;;;4.97;4.50;;;;;;;;;;4972143;28;20657;-50
2023/12/24 05:52:41;;;;;;;4.93;4.47;;;;;;;;;;4971807;28;20201;-50
2023/12/24 05:55:13;;;;;;;5.40;4.90;;;;;;;;;;4972402;28;20620;-49
2023/12/24 05:57:46;;;;;;;5.70;5.10;;;;;;;;;;4968468;28;20213;-49
2023/12/24 06:10:04;;;;;;;5.57;5.17;;;;;;;;;;4888775;29;20216;-48
2023/12/24 06:22:07;;;;;;;4.77;4.23;;;;;;;;;;4801741;29;20314;-49
2023/12/24 06:43:43;;;;;;;3.40;3.10;;;;;;;;;;4750324;30;20194;-50
2023/12/24 06:49:51;;;;;;;3.17;2.97;;;;;;;;;;4739408;30;20287;-49
2023/12/24 06:55:44;;;;;;;3.37;3.07;;;;;;;;;;4796208;29;20231;-48
2023/12/24 07:05:04;;;;;;;4.23;2.00;;;;;;;;;;4811170;29;20289;-48
2023/12/24 07:11:06;;;;;;;2.67;2.20;;;;;;;;;;4812933;29;20244;-54
2023/12/24 07:20:28;;;;;;;2.10;1.53;;;;;;;;;;4794509;29;20201;-51
2023/12/24 07:29:43;;;;;;;4.37;2.40;;;;;;;;;;4740895;30;20215;-49
2023/12/24 07:32:32;;;;;;;2.17;1.93;;;;;;;;;;4752206;30;20243;-49
2023/12/24 07:38:45;;;;;;;3.33;1.80;;;;;;;;;;4757364;30;20702;-49
2023/12/24 07:44:44;;;;;;;1.90;1.40;;;;;;;;;;4775119;29;20265;-55
2023/12/24 07:47:10;;;;;;;2.17;1.50;;;;;;;;;;4769129;29;20218;-49
2023/12/24 07:49:36;;;;;;;3.50;1.37;;;;;;;;;;4825751;29;20484;-49
2023/12/24 07:52:02;;;;;;;3.97;1.70;;;;;;;;;;4902709;29;20205;-50
2023/12/24 07:54:28;;;;;;;1.60;1.50;;;;;;;;;;4943386;28;20221;-49
2023/12/24 07:56:55;;;;;;;1.50;1.40;;;;;;;;;;4962776;28;20264;-49
2023/12/24 07:59:21;;;;;;;2.40;1.57;;;;;;;;;;4962534;28;20207;-50
2023/12/24 08:01:47;;;;;;;1.60;1.50;;;;;;;;;;4963134;28;20222;-50
2023/12/24 08:04:13;;;;;;;1.50;1.40;;;;;;;;;;4964927;28;20223;-50
2023/12/24 08:06:39;;;;;;;1.60;1.50;;;;;;;;;;4963103;28;20694;-51
2023/12/24 08:09:07;;;;;;;2.30;1.47;;;;;;;;;;4961141;28;20199;-49
2023/12/24 08:11:33;;;;;;;1.80;1.70;;;;;;;;;;4963088;28;20203;-49
2023/12/24 08:14:00;;;;;;;1.90;1.80;;;;;;;;;;4964894;28;20203;-50
2023/12/24 08:16:27;;;;;;;1.70;1.60;;;;;;;;;;4964703;28;20198;-50
2023/12/24 08:18:55;;;;;;;1.40;1.30;;;;;;;;;;4966013;28;20203;-49
2023/12/24 08:21:21;;;;;;;2.03;1.30;;;;;;;;;;4960762;28;20606;-47
2023/12/24 08:23:48;;;;;;;1.73;1.20;;;;;;;;;;4962604;28;20585;-46
2023/12/24 08:26:14;;;;;;;1.37;1.10;;;;;;;;;;4964410;28;20250;-48
2023/12/24 08:28:40;;;;;;;1.20;1.10;;;;;;;;;;4964638;28;20214;-49
2023/12/24 08:31:07;;;;;;;1.00;1.00;;;;;;;;;;4962380;28;20206;-48
2023/12/24 08:33:33;;;;;;;1.00;1.00;;;;;;;;;;4969379;28;20661;-49
2023/12/24 08:35:59;;;;;;;1.27;1.17;;;;;;;;;;4981856;28;20253;-49
2023/12/24 08:38:25;;;;;;;1.47;0.90;;;;;;;;;;4983499;28;20202;-50
2023/12/24 08:40:51;;;;;;;1.07;1.07;;;;;;;;;;4986986;28;20202;-49
2023/12/24 08:43:17;;;;;;;2.17;1.20;;;;;;;;;;4985191;28;20273;-47
2023/12/24 08:45:43;;;;;;;1.67;1.20;;;;;;;;;;4983486;28;20273;-48
2023/12/24 08:48:11;;;;;;;1.30;1.00;;;;;;;;;;4989217;28;20241;-49
2023/12/24 08:50:37;;;;;;;1.70;1.10;;;;;;;;;;5000899;28;20272;-48
2023/12/24 08:53:03;;;;;;;1.20;1.20;;;;;;;;;;5002091;28;20285;-49
2023/12/24 08:55:29;;;;;;;1.20;1.10;;;;;;;;;;5006736;28;20277;-48
2023/12/24 08:57:55;;;;;;;1.10;1.10;;;;;;;;;;5006444;28;20206;-49
2023/12/24 09:00:21;;;;;;;1.17;1.13;;;;;;;;;;5004521;28;20205;-49
2023/12/24 09:02:48;;;;;;;1.13;1.10;;;;;;;;;;5004414;28;20198;-49
2023/12/24 09:05:18;;;;;;;0.90;0.90;;;;;;;;;;5002733;28;20589;-49
2023/12/24 09:07:44;;;;;;;1.13;1.03;;;;;;;;;;5002724;28;20228;-48
2023/12/24 09:10:10;;;;;;;0.70;0.70;;;;;;;;;;5006021;28;20207;-48
2023/12/24 09:12:36;;;;;;;2.20;0.80;;;;;;;;;;5002571;28;20280;-48
2023/12/24 09:15:02;;;;;;;0.80;0.80;;;;;;;;;;5002395;28;20212;-50
2023/12/24 09:17:28;;;;;;;1.17;0.80;;;;;;;;;;5004387;28;20206;-49
2023/12/24 09:19:54;;;;;;;0.90;0.90;;;;;;;;;;5000239;28;20208;-49
2023/12/24 09:22:21;;;;;;;0.80;0.80;;;;;;;;;;5004028;28;20206;-49
2023/12/24 09:24:48;;;;;;;0.70;0.70;;;;;;;;;;5001954;28;20229;-49
2023/12/24 09:27:14;;;;;;;0.70;0.70;;;;;;;;;;5007295;28;20260;-49
2023/12/24 09:29:40;;;;;;;33.97;19.03;;;;;;;;;;5003844;28;20205;-49
2023/12/24 09:32:06;;;;;;;3.50;3.17;;;;;;;;;;5005655;28;20885;-48
2023/12/24 09:34:33;;;;;;;2.53;2.00;;;;;;;;;;5007433;28;20591;-48
2023/12/24 09:36:59;;;;;;;1.63;1.53;;;;;;;;;;5002292;28;20213;-49
2023/12/24 09:39:26;;;;;;;1.27;1.10;;;;;;;;;;5000788;28;20209;-48
2023/12/24 09:41:54;;;;;;;1.47;1.37;;;;;;;;;;5005491;28;20205;-48
2023/12/24 09:44:22;;;;;;;1.37;0.90;;;;;;;;;;5001927;28;20244;-49
2023/12/24 09:46:48;;;;;;;1.67;0.90;;;;;;;;;;5003716;28;20721;-49
2023/12/24 09:49:14;;;;;;;1.10;1.10;;;;;;;;;;5001766;28;20249;-48
2023/12/24 09:51:42;;;;;;;0.60;0.60;;;;;;;;;;5007308;28;20198;-48
2023/12/24 09:54:09;;;;;;;1.83;0.90;;;;;;;;;;5000103;28;20276;-49
2023/12/24 09:56:36;;;;;;;1.23;0.97;;;;;;;;;;5007100;28;20205;-50
2023/12/24 09:59:03;;;;;;;1.03;0.93;;;;;;;;;;5001589;28;20656;-50
2023/12/24 10:01:29;;;;;;;1.13;1.00;;;;;;;;;;5005746;28;20198;-50
2023/12/24 10:03:55;;;;;;;2.23;1.07;;;;;;;;;;5008617;28;20244;-49
2023/12/24 10:06:21;;;;;;;0.80;0.80;;;;;;;;;;5007574;28;20627;-50
2023/12/24 10:08:53;;;;;;;0.80;0.80;;;;;;;;;;5007376;28;20202;-51
2023/12/24 10:11:21;;;;;;;2.43;1.37;;;;;;;;;;5007612;28;20229;-50
2023/12/24 10:13:57;;;;;;;1.17;1.13;;;;;;;;;;5007169;28;20205;-50
2023/12/24 10:16:23;;;;;;;1.20;1.10;;;;;;;;;;5003795;28;20220;-52
2023/12/24 10:18:50;;;;;;;1.43;1.30;;;;;;;;;;5009414;28;20201;-52
2023/12/24 10:21:16;;;;;;;1.63;1.10;;;;;;;;;;5003842;28;20235;-48
2023/12/24 10:23:42;;;;;;;1.00;1.00;;;;;;;;;;5003047;28;20280;-49
2023/12/24 10:26:10;;;;;;;1.63;1.10;;;;;;;;;;4985902;28;20210;-49
2023/12/24 10:28:48;;;;;;;1.00;1.00;;;;;;;;;;4984912;28;20273;-49
2023/12/24 10:31:15;;;;;;;0.93;0.90;;;;;;;;;;4984806;28;20281;-48
2023/12/24 10:33:41;;;;;;;1.00;1.00;;;;;;;;;;4985479;28;20194;-49
2023/12/24 10:36:08;;;;;;;1.93;1.20;;;;;;;;;;4982003;28;20640;-49
2023/12/24 10:38:34;;;;;;;2.10;2.00;;;;;;;;;;4984711;28;20273;-49
2023/12/24 10:41:01;;;;;;;0.90;0.90;;;;;;;;;;4984786;28;20638;-48
2023/12/24 10:43:27;;;;;;;1.27;1.17;;;;;;;;;;4986112;28;20203;-49
2023/12/24 10:45:53;;;;;;;1.07;1.07;;;;;;;;;;4984452;28;20572;-49
2023/12/24 10:48:21;;;;;;;1.33;1.10;;;;;;;;;;4982174;28;20238;-48
2023/12/24 10:50:47;;;;;;;1.10;1.10;;;;;;;;;;4984566;28;20203;-48
2023/12/24 10:53:15;;;;;;;1.10;1.10;;;;;;;;;;4984802;28;20202;-48
2023/12/24 10:55:45;;;;;;;1.63;0.90;;;;;;;;;;4984500;28;20285;-48
2023/12/24 10:58:17;;;;;;;1.10;1.00;;;;;;;;;;4986050;28;20205;-49
2023/12/24 11:00:43;;;;;;;0.90;0.90;;;;;;;;;;4986150;28;20202;-49
2023/12/24 11:03:09;;;;;;;1.20;1.10;;;;;;;;;;4986124;28;20210;-48
2023/12/24 11:05:47;;;;;;;0.67;0.67;;;;;;;;;;4990693;28;20810;-50
2023/12/24 11:08:28;;;;;;;1.00;0.90;;;;;;;;;;4997273;28;20217;-50
2023/12/24 11:10:54;;;;;;;1.10;1.00;;;;;;;;;;4989338;28;20866;-49
2023/12/24 11:13:41;;;;;;;3.77;3.47;;;;;;;;;;4991801;28;20202;-50
2023/12/24 11:18:44;;;;;;;0.70;0.70;;;;;;;;;;5491085;23;20244;-50
2023/12/24 11:21:12;;;;;;;1.20;1.10;;;;;;;;;;5028506;28;20201;-49
2023/12/24 11:23:38;;;;;;;2.23;0.90;;;;;;;;;;5026585;28;20905;-49
2023/12/24 11:26:19;;;;;;;2.10;2.00;;;;;;;;;;5030239;28;20686;-49
2023/12/24 11:28:45;;;;;;;1.17;0.90;;;;;;;;;;5028194;28;20785;-50
2023/12/24 11:31:11;;;;;;;2.10;0.60;;;;;;;;;;5028556;28;20204;-50
2023/12/24 11:33:46;;;;;;;0.57;0.57;;;;;;;;;;5027770;28;20193;-49
2023/12/24 11:36:14;;;;;;;0.70;0.70;;;;;;;;;;5028240;28;20193;-48
2023/12/24 11:38:40;;;;;;;0.60;0.60;;;;;;;;;;5029708;28;20292;-49
2023/12/24 11:41:07;;;;;;;0.70;0.70;;;;;;;;;;5024702;28;20197;-49
2023/12/24 11:43:33;;;;;;;0.60;0.60;;;;;;;;;;5022723;28;20236;-49
2023/12/24 11:45:59;;;;;;;0.53;0.53;;;;;;;;;;5025616;28;20240;-49
2023/12/24 11:48:26;;;;;;;1.10;1.00;;;;;;;;;;5029588;28;20258;-48
2023/12/24 11:51:01;;;;;;;0.83;0.83;;;;;;;;;;5046937;28;20200;-48
2023/12/24 11:53:29;;;;;;;1.50;0.80;;;;;;;;;;5033679;28;20208;-48
2023/12/24 11:56:13;;;;;;;1.00;1.00;;;;;;;;;;5033270;28;20197;-49
2023/12/24 11:58:40;;;;;;;0.80;0.80;;;;;;;;;;5033509;28;20647;-51
2023/12/24 12:01:06;;;;;;;0.77;0.73;;;;;;;;;;5032653;28;20280;-48
2023/12/24 12:03:32;;;;;;;0.73;0.73;;;;;;;;;;5033199;28;20200;-48
2023/12/24 12:05:59;;;;;;;1.00;1.00;;;;;;;;;;5032862;28;20240;-48
2023/12/24 12:08:25;;;;;;;1.20;1.10;;;;;;;;;;5032518;28;20735;-48
2023/12/24 12:10:52;;;;;;;1.27;1.10;;;;;;;;;;5033063;28;20197;-50
2023/12/24 12:13:19;;;;;;;1.23;1.00;;;;;;;;;;5032878;28;20545;-48
2023/12/24 12:15:45;;;;;;;1.00;1.00;;;;;;;;;;5032947;28;20663;-49
2023/12/24 12:18:11;;;;;;;0.97;0.97;;;;;;;;;;5032482;28;20308;-49
2023/12/24 12:20:37;;;;;;;0.80;0.80;;;;;;;;;;5033170;28;20211;-49
2023/12/24 12:23:03;;;;;;;0.83;0.83;;;;;;;;;;5032710;28;20572;-49
2023/12/24 12:25:29;;;;;;;0.87;0.80;;;;;;;;;;5032654;28;20243;-49
2023/12/24 12:27:56;;;;;;;1.50;0.83;;;;;;;;;;5031667;28;20213;-49
2023/12/24 12:30:23;;;;;;;2.57;1.63;;;;;;;;;;5032921;28;20197;-49
2023/12/24 12:32:49;;;;;;;2.90;2.00;;;;;;;;;;5032124;28;20797;-50
2023/12/24 12:35:15;;;;;;;2.40;1.93;;;;;;;;;;5032468;28;20204;-49
2023/12/24 12:37:41;;;;;;;1.50;1.40;;;;;;;;;;5032427;28;20628;-49
2023/12/24 12:40:07;;;;;;;1.73;1.33;;;;;;;;;;5032440;28;20732;-49
2023/12/24 12:42:33;;;;;;;1.37;1.07;;;;;;;;;;5032706;28;20200;-49
2023/12/24 12:45:01;;;;;;;1.00;1.00;;;;;;;;;;5032142;28;20225;-50
2023/12/24 12:47:38;;;;;;;1.10;1.00;;;;;;;;;;5083442;28;20552;-49
2023/12/24 12:50:04;;;;;;;2.40;1.37;;;;;;;;;;5089290;28;20198;-48
2023/12/24 12:52:30;;;;;;;2.73;1.50;;;;;;;;;;5089328;28;20191;-49
2023/12/24 12:55:01;;;;;;;1.20;1.10;;;;;;;;;;5089199;28;20224;-49
2023/12/24 12:57:30;;;;;;;1.90;1.50;;;;;;;;;;5089377;28;20272;-48
2023/12/24 13:00:08;;;;;;;1.00;1.00;;;;;;;;;;5099087;28;20232;-49
2023/12/24 13:02:34;;;;;;;0.87;0.83;;;;;;;;;;5109118;28;20202;-49
2023/12/24 13:05:02;;;;;;;1.30;1.20;;;;;;;;;;5109178;28;20674;-50
2023/12/24 13:07:31;;;;;;;0.90;0.90;;;;;;;;;;5109271;28;20325;-50
2023/12/24 13:09:58;;;;;;;1.07;1.07;;;;;;;;;;5108827;28;20198;-50
2023/12/24 13:12:24;;;;;;;0.93;0.93;;;;;;;;;;5108816;28;20210;-49
2023/12/24 13:14:52;;;;;;;1.00;1.00;;;;;;;;;;5109153;28;20198;-48
2023/12/24 13:17:24;;;;;;;1.33;1.23;;;;;;;;;;5097590;28;20276;-51
2023/12/24 13:19:51;;;;;;;1.40;1.17;;;;;;;;;;5088940;28;20198;-50
2023/12/24 13:22:19;;;;;;;1.30;1.20;;;;;;;;;;5082168;28;20714;-48
2023/12/24 13:24:46;;;;;;;1.40;1.30;;;;;;;;;;5068253;28;20199;-48
2023/12/24 13:27:12;;;;;;;1.50;1.10;;;;;;;;;;5068307;28;20252;-48
2023/12/24 13:29:38;;;;;;;1.80;1.50;;;;;;;;;;5068409;28;20669;-48
2023/12/24 13:32:05;;;;;;;1.50;1.40;;;;;;;;;;5063168;28;20204;-50
2023/12/24 13:34:32;;;;;;;2.27;1.60;;;;;;;;;;5083066;28;20199;-49
2023/12/24 13:36:58;;;;;;;1.47;1.23;;;;;;;;;;5088020;28;20210;-49
2023/12/24 13:39:25;;;;;;;1.43;1.27;;;;;;;;;;5088213;28;20206;-49
2023/12/24 13:41:51;;;;;;;1.50;1.40;;;;;;;;;;5088223;28;20207;-50
2023/12/24 13:44:17;;;;;;;1.80;1.40;;;;;;;;;;5087395;28;20203;-49
2023/12/24 13:46:43;;;;;;;2.20;1.53;;;;;;;;;;5087458;28;20287;-49
2023/12/24 13:49:09;;;;;;;1.40;1.30;;;;;;;;;;5087919;28;20201;-49
2023/12/24 13:51:36;;;;;;;1.90;1.50;;;;;;;;;;5088039;28;20195;-49
2023/12/24 13:54:02;;;;;;;1.70;1.60;;;;;;;;;;5088092;28;20275;-49
2023/12/24 13:56:32;;;;;;;1.57;1.37;;;;;;;;;;5065427;28;20192;-49
2023/12/24 13:58:57;;;;;;;1.87;1.50;;;;;;;;;;5054380;28;20660;-48
2023/12/24 14:01:23;;;;;;;2.30;1.53;;;;;;;;;;5054276;28;20216;-48
2023/12/24 14:03:49;;;;;;;1.73;1.60;;;;;;;;;;5054354;28;20258;-49
2023/12/24 14:06:15;;;;;;;3.40;1.83;;;;;;;;;;5071999;28;20247;-49
2023/12/24 14:08:41;;;;;;;1.70;1.40;;;;;;;;;;5073387;28;20665;-49
2023/12/24 14:11:10;;;;;;;4.20;2.50;;;;;;;;;;5073385;28;20200;-49
2023/12/24 14:13:38;;;;;;;4.00;2.70;;;;;;;;;;5073485;28;20206;-50
2023/12/24 14:16:04;;;;;;;1.97;1.87;;;;;;;;;;5073353;28;20211;-49
2023/12/24 14:18:30;;;;;;;2.97;1.70;;;;;;;;;;5073236;28;20736;-48
2023/12/24 14:20:56;;;;;;;2.37;1.70;;;;;;;;;;5072018;28;20291;-49
2023/12/24 14:23:22;;;;;;;3.60;2.57;;;;;;;;;;5073436;28;20198;-49
2023/12/24 14:25:48;;;;;;;2.13;1.60;;;;;;;;;;5073879;28;20223;-48
2023/12/24 14:28:14;;;;;;;1.80;1.60;;;;;;;;;;5073306;28;20192;-48
2023/12/24 14:30:41;;;;;;;1.80;1.60;;;;;;;;;;5066959;28;20195;-47
2023/12/24 14:33:07;;;;;;;1.70;1.60;;;;;;;;;;5066712;28;20204;-47
2023/12/24 14:35:33;;;;;;;1.70;1.60;;;;;;;;;;5068416;28;20282;-47
2023/12/24 14:37:59;;;;;;;1.80;1.70;;;;;;;;;;5065963;28;20661;-47
2023/12/24 14:40:25;;;;;;;1.77;1.63;;;;;;;;;;5062554;28;20294;-48
2023/12/24 14:42:51;;;;;;;1.97;1.30;;;;;;;;;;5062555;28;20619;-48
2023/12/24 14:45:17;;;;;;;1.63;1.53;;;;;;;;;;5065194;28;20563;-48
2023/12/24 14:47:45;;;;;;;1.50;1.40;;;;;;;;;;5063017;28;20277;-49
2023/12/24 14:50:11;;;;;;;2.30;1.60;;;;;;;;;;5063117;28;20199;-48
2023/12/24 14:52:37;;;;;;;2.50;2.30;;;;;;;;;;5064681;28;20611;-48
2023/12/24 14:55:03;;;;;;;2.93;2.73;;;;;;;;;;5061630;28;20677;-48
2023/12/24 14:57:30;;;;;;;2.03;1.83;;;;;;;;;;5063885;28;20199;-50
2023/12/24 14:59:56;;;;;;;1.73;1.63;;;;;;;;;;5064456;28;20299;-49
2023/12/24 15:02:24;;;;;;;1.80;1.70;;;;;;;;;;5067483;28;20208;-49
2023/12/24 15:04:52;;;;;;;2.60;1.90;;;;;;;;;;5064111;28;20564;-50
2023/12/24 15:07:18;;;;;;;1.60;1.50;;;;;;;;;;5063083;28;20652;-48
2023/12/24 15:09:44;;;;;;;1.50;1.40;;;;;;;;;;5068395;28;20230;-49
2023/12/24 15:12:10;;;;;;;2.00;1.80;;;;;;;;;;5061654;28;20203;-49
2023/12/24 15:14:36;;;;;;;2.33;1.40;;;;;;;;;;5064108;28;20210;-49
2023/12/24 15:17:02;;;;;;;1.40;1.30;;;;;;;;;;5065805;28;20224;-49
2023/12/24 15:19:29;;;;;;;1.30;1.20;;;;;;;;;;5062179;28;20203;-49
2023/12/24 15:21:56;;;;;;;17.27;15.50;;;;;;;;;;5059900;28;20209;-50
2023/12/24 15:24:22;;;;;;;2.17;1.63;;;;;;;;;;5063056;28;20207;-48
2023/12/24 15:26:48;;;;;;;2.13;1.67;;;;;;;;;;5040511;28;20225;-49
2023/12/24 15:29:14;;;;;;;1.50;1.40;;;;;;;;;;5061724;28;20225;-49
2023/12/24 15:31:40;;;;;;;1.30;1.20;;;;;;;;;;5067567;28;20219;-49
2023/12/24 15:34:07;;;;;;;1.93;1.50;;;;;;;;;;5061772;28;20647;-49
2023/12/24 15:36:33;;;;;;;1.50;1.40;;;;;;;;;;5064996;28;20196;-49
2023/12/24 15:39:00;;;;;;;1.83;1.50;;;;;;;;;;5061757;28;20208;-49
2023/12/24 15:41:26;;;;;;;1.73;1.30;;;;;;;;;;5061564;28;20208;-49
2023/12/24 15:43:52;;;;;;;4.93;4.47;;;;;;;;;;5063584;28;20210;-49
2023/12/24 15:46:18;;;;;;;1.40;1.30;;;;;;;;;;5064866;28;20321;-49
2023/12/24 15:48:44;;;;;;;1.50;1.40;;;;;;;;;;5064854;28;20657;-48
2023/12/24 15:51:10;;;;;;;2.70;2.50;;;;;;;;;;5065168;28;20245;-49
2023/12/24 15:53:37;;;;;;;2.13;1.50;;;;;;;;;;5069244;28;20282;-50
2023/12/24 15:56:04;;;;;;;1.80;1.70;;;;;;;;;;5070507;28;20264;-49
2023/12/24 15:58:30;;;;;;;2.70;1.70;;;;;;;;;;5061329;28;20218;-49
2023/12/24 16:00:56;;;;;;;1.47;1.37;;;;;;;;;;5068438;28;20561;-49
2023/12/24 16:03:22;;;;;;;2.70;2.07;;;;;;;;;;5066771;28;20724;-49
2023/12/24 16:05:48;;;;;;;3.83;3.47;;;;;;;;;;5063198;28;20247;-48
2023/12/24 16:08:15;;;;;;;2.13;1.40;;;;;;;;;;5069742;28;20219;-49
2023/12/24 16:10:41;;;;;;;2.60;1.30;;;;;;;;;;5062727;28;20200;-48
2023/12/24 16:13:08;;;;;;;1.77;1.30;;;;;;;;;;5066423;28;20211;-50
2023/12/24 16:15:34;;;;;;;2.73;1.20;;;;;;;;;;5063010;28;20211;-48
2023/12/24 16:18:00;;;;;;;1.40;1.30;;;;;;;;;;5062983;28;20220;-48
2023/12/24 16:20:26;;;;;;;1.77;1.20;;;;;;;;;;5064142;28;20819;-49
2023/12/24 16:22:52;;;;;;;3.33;2.17;;;;;;;;;;5066077;28;20286;-50
2023/12/24 16:25:18;;;;;;;1.50;1.40;;;;;;;;;;5066048;28;20203;-49
2023/12/24 16:27:44;;;;;;;1.17;1.17;;;;;;;;;;5060893;28;20223;-49
2023/12/24 16:30:12;;;;;;;1.87;1.17;;;;;;;;;;5064123;28;20687;-49
2023/12/24 16:32:38;;;;;;;2.20;1.50;;;;;;;;;;5060707;28;20214;-49
2023/12/24 16:35:04;;;;;;;1.40;1.20;;;;;;;;;;5067859;28;20195;-49
2023/12/24 16:37:31;;;;;;;1.30;1.20;;;;;;;;;;5062737;28;20195;-49
2023/12/24 16:39:57;;;;;;;1.43;1.10;;;;;;;;;;5064246;28;20199;-49
2023/12/24 16:42:23;;;;;;;1.70;1.30;;;;;;;;;;5062198;28;20249;-49
2023/12/24 16:44:49;;;;;;;2.13;1.30;;;;;;;;;;5060654;28;20231;-49
2023/12/24 16:47:16;;;;;;;1.57;1.47;;;;;;;;;;5065638;28;20319;-49
2023/12/24 16:49:42;;;;;;;1.40;1.30;;;;;;;;;;5069265;28;20204;-49
2023/12/24 16:52:08;;;;;;;1.20;1.20;;;;;;;;;;5062230;28;20465;-48
2023/12/24 16:54:34;;;;;;;1.03;1.03;;;;;;;;;;5058596;28;20199;-50
2023/12/24 16:57:00;;;;;;;1.47;1.37;;;;;;;;;;5061984;28;20187;-49
2023/12/24 16:59:26;;;;;;;1.37;1.20;;;;;;;;;;5065487;28;20503;-49
2023/12/24 17:01:52;;;;;;;2.70;1.20;;;;;;;;;;5064006;28;20269;-49
2023/12/24 17:04:20;;;;;;;1.20;1.10;;;;;;;;;;5066960;28;20195;-48
2023/12/24 17:06:46;;;;;;;1.40;1.30;;;;;;;;;;5063313;28;20238;-48
2023/12/24 17:09:14;;;;;;;1.10;1.10;;;;;;;;;;5063699;28;20196;-49
2023/12/24 17:11:40;;;;;;;1.23;1.13;;;;;;;;;;5061872;28;20206;-48
2023/12/24 17:14:06;;;;;;;1.67;1.40;;;;;;;;;;5065246;28;20203;-48
2023/12/24 17:16:32;;;;;;;2.33;1.70;;;;;;;;;;5063761;28;20290;-49
2023/12/24 17:18:58;;;;;;;2.33;1.90;;;;;;;;;;5060296;28;20199;-49
2023/12/24 17:21:25;;;;;;;2.73;2.23;;;;;;;;;;5063522;28;20200;-49
2023/12/24 17:23:51;;;;;;;2.23;1.57;;;;;;;;;;5061484;28;20546;-50
2023/12/24 17:26:17;;;;;;;1.50;1.40;;;;;;;;;;5064133;28;20219;-48
2023/12/24 17:28:43;;;;;;;1.80;1.70;;;;;;;;;;5061409;28;20199;-48
2023/12/24 17:31:09;;;;;;;1.67;1.57;;;;;;;;;;5066942;28;20218;-51
2023/12/24 17:33:35;;;;;;;1.50;1.37;;;;;;;;;;5065107;28;20283;-50
2023/12/24 17:36:01;;;;;;;2.53;1.50;;;;;;;;;;5064920;28;20191;-49
2023/12/24 17:38:28;;;;;;;2.03;1.40;;;;;;;;;;5073717;28;20573;-49
2023/12/24 17:40:54;;;;;;;1.50;1.40;;;;;;;;;;5065337;28;20546;-49
2023/12/24 17:43:20;;;;;;;1.50;1.40;;;;;;;;;;5070562;28;20209;-49
2023/12/24 17:45:47;;;;;;;2.23;1.80;;;;;;;;;;5063575;28;20239;-49
2023/12/24 17:48:15;;;;;;;2.13;1.93;;;;;;;;;;5066616;28;20621;-49
2023/12/24 17:50:41;;;;;;;3.03;2.20;;;;;;;;;;5064985;28;20191;-50
2023/12/24 17:53:07;;;;;;;2.47;2.03;;;;;;;;;;5065208;28;20305;-49
2023/12/24 17:55:34;;;;;;;1.67;1.57;;;;;;;;;;5066805;28;20199;-49
2023/12/24 17:58:00;;;;;;;1.50;1.40;;;;;;;;;;5068220;28;20196;-49
2023/12/24 18:00:26;;;;;;;1.73;1.60;;;;;;;;;;5063353;28;20218;-48
2023/12/24 18:02:52;;;;;;;1.70;1.60;;;;;;;;;;5065225;28;20719;-49
2023/12/24 18:05:18;;;;;;;2.73;2.00;;;;;;;;;;5065090;28;20298;-49
2023/12/24 18:07:44;;;;;;;2.57;2.30;;;;;;;;;;5069568;28;20557;-49
2023/12/24 18:10:10;;;;;;;2.30;2.10;;;;;;;;;;5072328;28;20680;-48
2023/12/24 18:12:37;;;;;;;2.10;1.90;;;;;;;;;;5066768;28;20892;-49